Time;durP1;ratioP1;P1;durP2;ratioP2;P2;SDS_P1;SDS_P2;PMS_P1;PMS_P2;Temp;Humidity;BMP_temperature;BMP_pressure;BME280_temperature;BME280_humidity;BME280_pressure;Samples;Min_cycle;Max_cycle;Signal;HPM_P1;HPM_P2
2023/08/23 00:02:19;;;;;;;13.45;12.25;;;;;;;20.17;100.00;95158.41;4929947;29;20042;-92
2023/08/23 00:04:44;;;;;;;14.07;13.05;;;;;;;20.22;100.00;95161.16;4942491;29;20032;-91
2023/08/23 00:07:09;;;;;;;16.85;15.10;;;;;;;20.20;100.00;95150.06;4920068;29;20032;-91
2023/08/23 00:09:35;;;;;;;14.32;13.32;;;;;;;20.09;100.00;95168.44;4922712;29;20482;-90
2023/08/23 00:12:00;;;;;;;14.55;13.35;;;;;;;19.97;100.00;95190.22;4909436;29;20028;-90
2023/08/23 00:14:25;;;;;;;13.80;12.73;;;;;;;20.07;100.00;95170.50;4909992;29;20031;-91
2023/08/23 00:16:51;;;;;;;15.18;14.00;;;;;;;20.05;100.00;95157.56;4931596;29;20035;-89
2023/08/23 00:19:16;;;;;;;15.32;14.07;;;;;;;20.06;100.00;95163.63;4939896;29;20102;-91
2023/08/23 00:21:42;;;;;;;14.45;13.45;;;;;;;19.87;100.00;95171.53;4927254;29;20036;-89
2023/08/23 00:24:07;;;;;;;15.48;14.07;;;;;;;19.81;100.00;95177.69;4927439;29;20482;-88
2023/08/23 00:26:32;;;;;;;15.38;14.07;;;;;;;19.82;100.00;95168.00;4916176;29;20056;-87
2023/08/23 00:28:58;;;;;;;15.23;13.70;;;;;;;19.99;100.00;95154.00;4927540;29;20038;-92
2023/08/23 00:31:23;;;;;;;15.10;13.70;;;;;;;19.93;100.00;95154.09;4928931;29;20024;-94
2023/08/23 00:33:49;;;;;;;15.02;13.18;;;;;;;20.06;100.00;95142.59;4926957;29;20036;-88
2023/08/23 00:36:14;;;;;;;15.82;14.13;;;;;;;20.15;100.00;95130.72;4909553;29;20099;-93
2023/08/23 00:38:39;;;;;;;14.55;13.45;;;;;;;19.99;100.00;95130.34;4922379;29;20087;-87
2023/08/23 00:41:05;;;;;;;14.77;13.60;;;;;;;20.01;100.00;95145.88;4916086;29;20063;-89
2023/08/23 00:43:30;;;;;;;14.68;13.35;;;;;;;19.94;100.00;95145.16;4928590;29;20027;-93
2023/08/23 00:45:56;;;;;;;16.50;13.73;;;;;;;19.96;100.00;95149.19;4929702;29;20055;-88
2023/08/23 00:48:21;;;;;;;14.88;13.50;;;;;;;19.82;100.00;95153.03;4928552;29;20593;-93
2023/08/23 00:50:47;;;;;;;15.77;14.20;;;;;;;19.85;100.00;95164.91;4930100;29;20840;-92
2023/08/23 00:53:13;;;;;;;16.23;14.85;;;;;;;19.47;100.00;95194.09;4923881;29;20019;-93
2023/08/23 00:55:39;;;;;;;15.63;14.25;;;;;;;19.82;100.00;95194.28;4928852;29;20114;-93
2023/08/23 00:58:05;;;;;;;15.95;14.23;;;;;;;19.84;100.00;95184.38;4910461;29;20158;-91
2023/08/23 01:00:31;;;;;;;15.68;14.35;;;;;;;19.81;100.00;95177.69;4916645;29;20024;-92
2023/08/23 01:02:57;;;;;;;15.75;14.43;;;;;;;19.88;100.00;95164.47;4927799;29;20035;-93
2023/08/23 01:05:30;;;;;;;15.32;14.18;;;;;;;19.85;100.00;95168.34;4928340;29;20118;-92
2023/08/23 01:08:33;;;;;;;21.40;14.75;;;;;;;19.93;100.00;95164.63;4901896;29;20031;-93
2023/08/23 01:11:03;;;;;;;15.80;14.52;;;;;;;19.86;100.00;95156.81;4934727;29;20101;-93
2023/08/23 01:14:01;;;;;;;17.30;15.82;;;;;;;19.61;100.00;95178.97;4928461;29;20028;-93
2023/08/23 01:16:27;;;;;;;15.80;14.57;;;;;;;19.72;100.00;95186.09;4929012;29;20466;-94
2023/08/23 01:18:55;;;;;;;18.52;16.90;;;;;;;19.60;100.00;95177.38;4927196;29;20059;-91
2023/08/23 01:21:26;;;;;;;17.83;16.40;;;;;;;19.50;100.00;95193.66;4928497;29;20028;-93
2023/08/23 01:23:52;;;;;;;17.63;16.10;;;;;;;19.51;100.00;95194.47;4942480;29;20035;-93
2023/08/23 01:26:17;;;;;;;16.10;14.68;;;;;;;19.63;100.00;95184.81;4927002;29;20035;-93
2023/08/23 01:28:43;;;;;;;16.25;14.70;;;;;;;19.74;100.00;95163.06;4915572;29;20032;-92
2023/08/23 01:31:09;;;;;;;15.48;14.10;;;;;;;19.80;100.00;95165.59;4928139;29;20090;-93
2023/08/23 01:33:41;;;;;;;16.25;14.77;;;;;;;19.86;100.00;95159.44;4928144;29;20035;-92
2023/08/23 01:36:15;;;;;;;16.50;15.20;;;;;;;19.84;100.00;95158.06;4914940;29;20106;-93
2023/08/23 01:38:41;;;;;;;15.00;13.80;;;;;;;19.65;100.00;95162.53;4927185;29;20510;-94
2023/08/23 01:41:07;;;;;;;16.38;14.88;;;;;;;19.47;100.00;95188.84;4911542;29;20053;-93
2023/08/23 01:43:32;;;;;;;16.85;15.52;;;;;;;19.36;100.00;95200.84;4916191;29;20039;-94
2023/08/23 01:45:57;;;;;;;20.50;15.73;;;;;;;19.22;100.00;95219.59;4926251;29;20031;-92
2023/08/23 01:48:23;;;;;;;17.92;16.15;;;;;;;19.09;100.00;95241.53;4926798;29;20047;-91
2023/08/23 01:50:50;;;;;;;16.70;15.13;;;;;;;19.16;100.00;95238.84;4914993;29;20209;-90
2023/08/23 01:53:15;;;;;;;16.73;15.32;;;;;;;19.21;100.00;95221.41;4927298;29;20495;-91
2023/08/23 01:55:41;;;;;;;17.42;15.65;;;;;;;19.35;100.00;95207.13;4927744;29;20050;-91
2023/08/23 01:58:06;;;;;;;17.33;15.85;;;;;;;19.37;100.00;95199.03;4921359;29;20115;-89
2023/08/23 02:00:32;;;;;;;15.88;14.60;;;;;;;19.23;100.00;95200.97;4918897;29;20114;-89
2023/08/23 02:02:57;;;;;;;16.42;14.85;;;;;;;19.25;100.00;95204.22;4926606;29;20032;-87
2023/08/23 02:05:22;;;;;;;15.65;14.18;;;;;;;19.29;100.00;95194.88;4925471;29;20063;-88
2023/08/23 02:07:48;;;;;;;17.13;15.32;;;;;;;19.39;100.00;95178.59;4914563;29;20040;-94
2023/08/23 02:10:13;;;;;;;17.02;15.38;;;;;;;19.32;100.00;95180.50;4926886;29;20055;-93
2023/08/23 02:12:40;;;;;;;16.85;15.23;;;;;;;19.30;100.00;95179.91;4927802;29;20130;-90
2023/08/23 02:15:07;;;;;;;15.55;14.35;;;;;;;19.23;100.00;95185.22;4913042;29;20040;-86
2023/08/23 02:17:32;;;;;;;16.10;14.63;;;;;;;19.21;100.00;95187.28;4926009;29;20024;-92
2023/08/23 02:19:58;;;;;;;18.05;16.35;;;;;;;19.16;100.00;95195.00;4927513;29;20425;-93
2023/08/23 02:22:23;;;;;;;16.33;15.02;;;;;;;19.23;100.00;95194.94;4925574;29;20043;-88
2023/08/23 02:24:49;;;;;;;17.27;15.52;;;;;;;19.28;100.00;95179.31;4926239;29;20064;-88
2023/08/23 02:27:14;;;;;;;17.25;15.68;;;;;;;19.32;100.00;95176.06;4921247;29;20494;-88
2023/08/23 02:29:39;;;;;;;17.38;15.80;;;;;;;19.39;100.00;95171.50;4917025;29;20040;-88
2023/08/23 02:32:05;;;;;;;17.67;16.25;;;;;;;19.37;100.00;95175.38;4926101;29;20090;-88
2023/08/23 02:34:30;;;;;;;16.80;15.60;;;;;;;19.24;100.00;95181.59;4918404;29;20079;-88
2023/08/23 02:36:56;;;;;;;17.40;15.90;;;;;;;19.20;100.00;95184.88;4920232;29;20402;-90
2023/08/23 02:39:21;;;;;;;16.95;15.45;;;;;;;19.12;100.00;95191.22;4927100;29;20074;-90
2023/08/23 02:41:48;;;;;;;17.45;15.82;;;;;;;19.08;100.00;95199.72;4916203;29;20028;-90
2023/08/23 02:44:13;;;;;;;16.80;15.15;;;;;;;19.11;100.00;95209.78;4906988;29;20036;-89
2023/08/23 02:46:39;;;;;;;17.63;15.95;;;;;;;19.15;100.00;95196.03;4917921;29;20031;-92
2023/08/23 02:49:04;;;;;;;18.05;16.40;;;;;;;19.04;100.00;95227.47;4924447;29;20043;-91
2023/08/23 02:51:29;;;;;;;17.50;16.02;;;;;;;19.07;100.00;95243.56;4908233;29;20176;-93
2023/08/23 02:53:55;;;;;;;18.15;16.58;;;;;;;18.68;100.00;95251.78;4920560;29;20035;-93
2023/08/23 02:56:20;;;;;;;18.23;16.90;;;;;;;18.85;100.00;95260.72;4927776;29;20647;-90
2023/08/23 02:58:47;;;;;;;17.77;16.15;;;;;;;18.85;100.00;95271.22;4926820;29;20031;-92
2023/08/23 03:01:12;;;;;;;19.98;18.20;;;;;;;18.70;100.00;95276.78;4913404;29;20039;-89
2023/08/23 03:03:37;;;;;;;19.23;17.42;;;;;;;18.77;100.00;95279.38;4926961;29;20024;-91
2023/08/23 03:06:03;;;;;;;19.55;18.05;;;;;;;18.83;100.00;95275.88;4924739;29;20399;-89
2023/08/23 03:08:28;;;;;;;18.77;17.05;;;;;;;18.82;100.00;95269.81;4914684;29;20522;-90
2023/08/23 03:11:04;;;;;;;19.05;17.67;;;;;;;18.85;100.00;95261.50;4912401;29;20043;-88
2023/08/23 03:13:29;;;;;;;19.33;17.80;;;;;;;18.87;100.00;95254.25;4919220;29;20794;-87
2023/08/23 03:15:55;;;;;;;19.65;17.73;;;;;;;18.82;100.00;95251.44;4931484;29;20039;-88
2023/08/23 03:18:20;;;;;;;18.95;17.35;;;;;;;18.70;100.00;95268.91;4925413;29;20557;-88
2023/08/23 03:20:48;;;;;;;23.20;21.05;;;;;;;18.70;100.00;95275.97;4919512;29;20146;-88
2023/08/23 03:23:13;;;;;;;25.02;22.75;;;;;;;18.81;100.00;95275.31;4907022;29;20083;-90
2023/08/23 03:25:40;;;;;;;40.72;36.60;;;;;;;18.79;100.00;95270.25;4912733;29;20106;-92
2023/08/23 03:28:05;;;;;;;64.15;57.53;;;;;;;18.65;100.00;95275.81;4926357;29;20050;-93
2023/08/23 03:30:31;;;;;;;52.63;44.33;;;;;;;18.67;100.00;95276.41;4927264;29;20039;-91
2023/08/23 03:32:56;;;;;;;37.45;33.88;;;;;;;18.64;100.00;95282.88;4926449;29;20086;-90
2023/08/23 03:35:21;;;;;;;35.50;32.05;;;;;;;18.56;100.00;95292.84;4926649;29;20031;-95
2023/08/23 03:37:47;;;;;;;35.47;31.70;;;;;;;18.56;100.00;95288.38;4929555;29;20034;-96
2023/08/23 03:40:12;;;;;;;36.35;32.90;;;;;;;18.56;100.00;95298.09;4930203;29;20044;-94
2023/08/23 03:42:38;;;;;;;36.17;32.33;;;;;;;18.67;100.00;95292.16;4927754;29;20024;-96
2023/08/23 03:45:03;;;;;;;28.90;26.15;;;;;;;18.58;100.00;95285.53;4919670;29;20028;-96
2023/08/23 03:47:30;;;;;;;25.25;22.70;;;;;;;18.50;100.00;95291.84;4931526;29;20498;-96
2023/08/23 03:49:56;;;;;;;37.05;20.90;;;;;;;18.50;100.00;95309.41;4930580;29;20020;-96
2023/08/23 03:52:21;;;;;;;30.58;20.85;;;;;;;18.74;100.00;95279.78;4918257;29;20028;-95
2023/08/23 03:54:47;;;;;;;21.70;18.00;;;;;;;18.77;100.00;95259.16;4943220;29;20110;-95
2023/08/23 03:57:12;;;;;;;20.27;18.45;;;;;;;18.68;100.00;95262.28;4929202;29;20914;-93
2023/08/23 03:59:37;;;;;;;19.75;18.15;;;;;;;18.69;100.00;95255.97;4917008;29;20105;-94
2023/08/23 04:02:03;;;;;;;23.10;20.75;;;;;;;18.75;100.00;95260.41;4929692;29;20413;-93
2023/08/23 04:04:28;;;;;;;22.80;20.63;;;;;;;18.87;100.00;95235.06;4928970;29;20030;-94
2023/08/23 04:06:54;;;;;;;24.60;22.23;;;;;;;18.89;100.00;95235.66;4917393;29;20071;-94
2023/08/23 04:09:19;;;;;;;21.00;19.15;;;;;;;18.78;100.00;95237.13;4930629;29;20051;-94
2023/08/23 04:11:44;;;;;;;22.83;20.05;;;;;;;18.85;100.00;95248.41;4916261;29;20490;-95
2023/08/23 04:14:10;;;;;;;20.02;18.10;;;;;;;18.95;100.00;95237.41;4930490;29;20640;-96
2023/08/23 04:16:35;;;;;;;20.88;18.33;;;;;;;18.99;100.00;95232.53;4930028;29;20034;-94
2023/08/23 04:19:01;;;;;;;18.67;17.27;;;;;;;19.13;100.00;95218.28;4942463;29;20115;-96
2023/08/23 04:21:26;;;;;;;17.05;15.70;;;;;;;19.24;100.00;95209.66;4918308;29;20079;-94
2023/08/23 04:23:52;;;;;;;18.42;16.55;;;;;;;19.38;100.00;95198.81;4927274;29;20083;-95
2023/08/23 04:26:18;;;;;;;19.30;17.70;;;;;;;19.60;100.00;95191.31;4913268;29;20126;-96
2023/08/23 04:28:44;;;;;;;18.83;17.08;;;;;;;19.73;100.00;95190.34;4927848;29;20043;-95
2023/08/23 04:31:10;;;;;;;18.00;16.42;;;;;;;20.05;100.00;95168.09;4906317;29;20066;-93
2023/08/23 04:33:35;;;;;;;17.17;15.57;;;;;;;20.56;100.00;95125.44;4923971;29;20490;-94
2023/08/23 04:36:02;;;;;;;19.30;15.25;;;;;;;21.22;100.00;95090.03;4929330;29;20405;-94
2023/08/23 04:38:27;;;;;;;14.93;13.43;;;;;;;22.75;100.00;95037.81;4929937;29;20098;-94
2023/08/23 04:41:05;;;;;;;12.95;11.85;;;;;;;23.84;100.00;95009.44;4924568;29;20178;-94
2023/08/23 04:43:31;;;;;;;13.60;12.15;;;;;;;24.12;100.00;95006.53;4923043;29;20032;-93
2023/08/23 04:45:57;;;;;;;12.48;11.20;;;;;;;24.62;100.00;95006.09;4892735;29;20032;-93
2023/08/23 04:48:23;;;;;;;11.63;10.32;;;;;;;25.07;100.00;95002.09;4920405;29;20039;-91
2023/08/23 04:50:55;;;;;;;12.65;9.20;;;;;;;25.71;100.00;94999.09;4928633;29;20038;-93
2023/08/23 04:53:20;;;;;;;10.55;9.60;;;;;;;25.84;100.00;95001.22;4929585;29;20090;-94
2023/08/23 04:55:46;;;;;;;10.50;9.60;;;;;;;25.83;100.00;95003.09;4928589;29;20028;-93
2023/08/23 04:58:11;;;;;;;9.75;8.90;;;;;;;26.43;100.00;94998.84;4916108;29;20035;-93
2023/08/23 05:00:37;;;;;;;10.55;9.52;;;;;;;26.79;100.00;95007.53;4929776;29;20028;-94
2023/08/23 05:03:03;;;;;;;9.60;8.90;;;;;;;27.47;100.00;95006.78;4927050;29;20031;-92
2023/08/23 05:05:28;;;;;;;10.40;9.35;;;;;;;27.77;100.00;95019.91;4929791;29;20059;-91
2023/08/23 05:07:54;;;;;;;8.48;7.88;;;;;;;28.33;99.21;95010.72;4925553;29;20024;-93
2023/08/23 05:10:19;;;;;;;9.00;8.50;;;;;;;28.32;98.07;95012.59;4918522;29;20052;-93
2023/08/23 05:12:45;;;;;;;9.68;8.80;;;;;;;29.29;90.77;95003.34;4929052;29;20066;-90
2023/08/23 05:15:10;;;;;;;8.25;7.57;;;;;;;29.07;94.07;95005.72;4927092;29;20059;-93
2023/08/23 05:17:35;;;;;;;8.17;7.50;;;;;;;29.49;90.07;95009.50;4929616;29;20079;-92
2023/08/23 05:20:01;;;;;;;7.72;7.22;;;;;;;30.00;87.60;94998.91;4928212;29;20646;-89
2023/08/23 05:22:26;;;;;;;9.40;8.65;;;;;;;30.28;86.34;95003.25;4928375;29;20123;-86
2023/08/23 05:24:52;;;;;;;7.32;6.82;;;;;;;30.19;85.17;94997.81;4925947;29;20461;-90
2023/08/23 05:27:17;;;;;;;7.50;7.10;;;;;;;30.37;84.36;95001.53;4928469;29;20027;-88
2023/08/23 05:29:44;;;;;;;9.18;8.00;;;;;;;31.21;80.37;95002.16;4927330;29;20047;-90
2023/08/23 05:32:09;;;;;;;7.63;7.03;;;;;;;31.53;76.67;94998.56;4928738;29;20031;-89
2023/08/23 05:34:35;;;;;;;12.63;7.10;;;;;;;32.43;70.63;95006.38;4904776;29;20036;-91
2023/08/23 05:37:00;;;;;;;9.23;6.87;;;;;;;32.67;70.92;95008.78;4910002;29;20032;-89
2023/08/23 05:39:26;;;;;;;7.13;6.53;;;;;;;32.53;69.77;95005.34;4924548;29;20032;-92
2023/08/23 05:41:51;;;;;;;6.50;5.90;;;;;;;33.62;65.03;94996.50;4924675;29;20023;-91
2023/08/23 05:44:16;;;;;;;7.07;6.40;;;;;;;33.89;61.78;95005.06;4935828;29;20036;-92
2023/08/23 05:46:42;;;;;;;6.53;6.03;;;;;;;34.23;61.14;94995.44;4927146;29;20124;-89
2023/08/23 05:49:07;;;;;;;6.83;6.23;;;;;;;34.48;57.45;94991.91;4934252;29;20702;-90
2023/08/23 05:51:33;;;;;;;6.87;6.47;;;;;;;33.96;58.02;94995.72;4914297;29;20044;-86
2023/08/23 06:06:05;;;;;;;6.97;6.40;;;;;;;35.02;49.11;94994.91;5094751;27;1656969;-91
2023/08/23 06:08:31;;;;;;;7.25;6.65;;;;;;;37.33;45.54;94998.38;5130124;27;20035;-92
2023/08/23 06:10:56;;;;;;;6.60;5.90;;;;;;;37.47;45.26;94989.97;5107670;28;20028;-91
2023/08/23 06:13:22;;;;;;;6.70;5.80;;;;;;;37.48;47.69;94996.91;5119978;27;20019;-90
2023/08/23 06:15:48;;;;;;;6.37;5.87;;;;;;;38.11;46.71;94984.53;5100435;28;20512;-91
2023/08/23 06:18:13;;;;;;;7.28;6.40;;;;;;;38.53;45.84;94990.34;5132273;27;20035;-92
2023/08/23 06:20:39;;;;;;;8.27;6.95;;;;;;;38.81;45.44;94982.97;5105863;27;20019;-90
2023/08/23 06:23:04;;;;;;;7.80;7.13;;;;;;;38.39;43.04;94989.97;5139560;27;20524;-90
2023/08/23 06:25:30;;;;;;;8.70;7.95;;;;;;;38.60;43.56;94995.16;5126077;27;20507;-91
2023/08/23 06:27:55;;;;;;;8.20;7.63;;;;;;;37.35;47.82;94990.72;5138892;27;20418;-91
2023/08/23 06:30:21;;;;;;;8.75;8.15;;;;;;;34.75;55.74;94988.81;5136235;27;20019;-87
2023/08/23 06:32:47;;;;;;;8.45;7.68;;;;;;;33.75;57.19;94980.22;5110048;28;20043;-89
2023/08/23 06:35:16;;;;;;;8.40;7.60;;;;;;;33.65;58.89;94991.28;5123339;27;20066;-90
2023/08/23 06:37:42;;;;;;;8.32;7.65;;;;;;;33.58;58.40;94988.25;5136156;27;20026;-91
2023/08/23 06:40:11;;;;;;;7.72;7.10;;;;;;;33.66;55.83;94982.09;5111773;27;20027;-90
2023/08/23 06:42:38;;;;;;;7.32;6.72;;;;;;;33.49;55.82;94984.72;5123624;27;20034;-91
2023/08/23 06:45:06;;;;;;;7.13;6.28;;;;;;;32.07;56.69;94981.56;5103628;27;20024;-90
2023/08/23 06:47:31;;;;;;;9.50;6.50;;;;;;;33.91;50.75;94978.63;5111596;28;20019;-89
2023/08/23 06:49:56;;;;;;;6.97;6.37;;;;;;;37.16;44.75;94982.38;5109064;27;20025;-92
2023/08/23 06:52:23;;;;;;;6.40;6.00;;;;;;;38.53;41.02;94984.94;5136697;27;20035;-90
2023/08/23 06:54:48;;;;;;;;;;;;;;;38.55;41.28;94987.28;5098701;28;20162;-90
2023/08/23 06:57:13;;;;;;;5.97;5.57;;;;;;;38.92;37.57;94988.63;5100343;28;20010;-85
2023/08/23 06:59:39;;;;;;;8.27;5.77;;;;;;;40.43;37.52;94977.72;5098412;28;20068;-89
2023/08/23 07:02:04;;;;;;;6.40;5.90;;;;;;;40.84;36.25;94988.97;5099910;28;20474;-89
2023/08/23 07:04:29;;;;;;;5.97;5.40;;;;;;;39.47;37.44;94987.66;5116736;28;20043;-85
2023/08/23 07:06:55;;;;;;;6.43;5.13;;;;;;;38.70;37.30;94976.44;5105188;28;20024;-90
2023/08/23 07:09:20;;;;;;;6.40;5.90;;;;;;;39.99;36.82;94990.78;5085681;28;20484;-90
2023/08/23 07:11:46;;;;;;;6.47;5.23;;;;;;;40.95;35.13;94989.94;5084390;28;20035;-90
2023/08/23 07:14:11;;;;;;;7.23;5.43;;;;;;;40.52;35.90;94991.09;5069030;28;20100;-89
2023/08/23 07:16:37;;;;;;;5.90;5.40;;;;;;;40.49;35.08;94989.09;5067955;28;20043;-89
2023/08/23 07:19:03;;;;;;;5.47;4.97;;;;;;;40.92;36.04;94996.09;5086432;28;20050;-92
2023/08/23 07:21:29;;;;;;;5.82;5.40;;;;;;;41.37;34.63;94990.66;5083627;28;20031;-86
2023/08/23 07:23:55;;;;;;;6.72;5.50;;;;;;;41.35;33.59;94989.44;5086296;28;20127;-88
2023/08/23 07:26:20;;;;;;;7.38;5.72;;;;;;;40.19;36.31;94986.19;5102622;28;20544;-86
2023/08/23 07:28:45;;;;;;;7.43;6.68;;;;;;;39.10;37.71;94980.97;5085025;28;20089;-88
2023/08/23 07:31:11;;;;;;;8.35;7.68;;;;;;;36.07;46.71;94976.69;5103906;28;20028;-88
2023/08/23 07:33:36;;;;;;;9.20;6.90;;;;;;;35.84;46.75;94976.22;5081275;28;20449;-84
2023/08/23 07:36:02;;;;;;;8.05;7.38;;;;;;;35.35;47.69;94980.47;5084052;28;20032;-85
2023/08/23 07:38:32;;;;;;;8.13;7.35;;;;;;;34.96;50.51;94977.34;5070119;28;20463;-88
2023/08/23 07:41:03;;;;;;;8.20;7.57;;;;;;;34.69;52.82;94973.16;5068871;28;20039;-87
2023/08/23 07:43:28;;;;;;;9.60;8.75;;;;;;;34.80;52.34;94969.03;5067342;28;20028;-89
2023/08/23 07:45:56;;;;;;;10.60;7.65;;;;;;;34.88;50.12;94963.59;5084427;28;20031;-83
2023/08/23 07:48:25;;;;;;;12.33;8.43;;;;;;;34.74;51.66;94965.69;5071708;28;20028;-84
2023/08/23 07:50:51;;;;;;;10.32;7.93;;;;;;;34.98;51.93;94956.25;5057228;28;20354;-88
2023/08/23 07:53:17;;;;;;;8.02;7.35;;;;;;;35.39;50.89;94959.84;5084876;28;20114;-89
2023/08/23 07:55:44;;;;;;;10.93;8.00;;;;;;;34.57;51.34;94962.25;5064799;28;20062;-85
2023/08/23 07:58:10;;;;;;;8.27;7.75;;;;;;;35.06;53.45;94960.81;5085378;28;20054;-88
2023/08/23 08:00:35;;;;;;;8.73;7.93;;;;;;;35.03;52.41;94966.88;5082457;28;20032;-83
2023/08/23 08:03:03;;;;;;;8.68;7.60;;;;;;;34.45;51.05;94957.56;5102889;28;20081;-87
2023/08/23 08:05:29;;;;;;;8.48;7.55;;;;;;;34.67;52.25;94953.88;5085293;28;20044;-86
2023/08/23 08:07:54;;;;;;;8.60;7.47;;;;;;;35.10;52.01;94953.69;5102465;28;20408;-87
2023/08/23 08:10:20;;;;;;;7.85;7.25;;;;;;;34.96;52.59;94953.09;5101753;28;20477;-85
2023/08/23 08:12:45;;;;;;;7.57;6.78;;;;;;;35.31;50.82;94952.63;5083067;28;20020;-89
2023/08/23 08:15:11;;;;;;;10.75;7.43;;;;;;;35.29;51.65;94949.44;5084641;28;20055;-88
2023/08/23 08:17:36;;;;;;;7.93;7.32;;;;;;;33.80;53.88;94945.13;5081968;28;20042;-89
2023/08/23 08:20:06;;;;;;;11.73;7.90;;;;;;;33.75;53.46;94939.09;5083880;28;20023;-88
2023/08/23 08:22:32;;;;;;;7.65;7.15;;;;;;;33.70;53.38;94945.44;5084229;28;20028;-86
2023/08/23 08:24:57;;;;;;;8.65;7.57;;;;;;;33.30;52.14;94942.03;5083151;28;20034;-88
2023/08/23 08:27:23;;;;;;;8.60;7.82;;;;;;;33.63;52.75;94938.94;5103495;28;20078;-88
2023/08/23 08:29:49;;;;;;;9.18;7.82;;;;;;;35.04;51.35;94944.19;5100618;28;20091;-87
2023/08/23 08:32:14;;;;;;;8.00;7.20;;;;;;;35.28;50.92;94941.72;5067863;28;20051;-86
2023/08/23 08:34:39;;;;;;;7.60;7.05;;;;;;;35.56;51.31;94942.78;5066091;28;20042;-89
2023/08/23 08:37:06;;;;;;;7.85;7.15;;;;;;;35.60;49.29;94946.44;5083475;28;20057;-83
2023/08/23 08:39:32;;;;;;;7.43;6.78;;;;;;;35.51;49.47;94937.59;5100774;28;20031;-84
2023/08/23 08:41:59;;;;;;;8.27;7.63;;;;;;;34.23;49.29;94937.00;5066478;28;20096;-86
2023/08/23 08:44:24;;;;;;;9.40;7.43;;;;;;;34.83;48.46;94934.16;5074562;28;20397;-85
2023/08/23 08:46:50;;;;;;;8.02;7.40;;;;;;;35.05;48.51;94935.78;5101129;27;20148;-89
2023/08/23 08:49:15;;;;;;;7.35;6.72;;;;;;;35.51;47.29;94931.41;5096994;28;20440;-87
2023/08/23 08:51:45;;;;;;;7.90;7.10;;;;;;;35.59;47.66;94942.16;5099835;28;20103;-88
2023/08/23 08:54:11;;;;;;;7.90;7.30;;;;;;;33.30;48.76;94938.56;5083117;28;20568;-86
2023/08/23 08:56:37;;;;;;;8.57;7.88;;;;;;;34.08;46.01;94931.31;5081906;28;20037;-88
2023/08/23 08:59:02;;;;;;;8.05;7.40;;;;;;;33.75;47.43;94926.44;5083737;28;20605;-87
2023/08/23 09:01:31;;;;;;;9.02;7.57;;;;;;;34.73;46.07;94922.94;5082933;28;20062;-84
2023/08/23 09:03:57;;;;;;;11.82;7.05;;;;;;;34.27;45.62;94927.19;5065398;28;20023;-87
2023/08/23 09:06:23;;;;;;;7.55;7.05;;;;;;;33.84;46.21;94921.84;5082766;28;20031;-86
2023/08/23 09:08:49;;;;;;;9.90;7.70;;;;;;;33.29;49.42;94915.50;5061489;28;20031;-88
2023/08/23 09:11:14;;;;;;;10.25;9.25;;;;;;;32.46;49.66;94930.69;5079421;28;20023;-82
2023/08/23 09:13:39;;;;;;;7.82;7.13;;;;;;;32.96;47.03;94917.78;5099987;28;20028;-88
2023/08/23 09:16:05;;;;;;;7.35;6.78;;;;;;;33.08;48.50;94911.78;5082910;28;20015;-87
2023/08/23 09:18:32;;;;;;;9.02;7.22;;;;;;;33.00;48.05;94912.56;5100387;28;20520;-89
2023/08/23 09:20:57;;;;;;;7.97;7.28;;;;;;;32.79;49.02;94915.81;5082547;28;20579;-88
2023/08/23 09:23:23;;;;;;;8.52;7.80;;;;;;;32.48;48.46;94911.56;5083547;28;20134;-89
2023/08/23 09:25:48;;;;;;;7.25;6.75;;;;;;;32.49;48.38;94907.78;5081508;28;20326;-84
2023/08/23 09:28:14;;;;;;;7.63;7.03;;;;;;;33.21;47.28;94895.56;5083281;28;20032;-88
2023/08/23 09:30:40;;;;;;;7.75;7.18;;;;;;;33.90;47.15;94888.31;5098977;28;20019;-85
2023/08/23 09:33:05;;;;;;;8.02;6.75;;;;;;;34.41;45.72;94895.50;5082468;28;20023;-87
2023/08/23 09:35:31;;;;;;;7.40;6.72;;;;;;;34.15;44.87;94896.69;5081071;28;20047;-91
2023/08/23 09:37:56;;;;;;;7.30;6.80;;;;;;;34.17;45.60;94894.44;5100726;28;20033;-87
2023/08/23 09:40:23;;;;;;;8.25;7.35;;;;;;;33.57;44.38;94894.47;5070489;28;20027;-88
2023/08/23 09:42:50;;;;;;;7.65;7.10;;;;;;;33.63;43.69;94880.59;5081870;28;20136;-88
2023/08/23 09:45:21;;;;;;;7.50;7.10;;;;;;;32.88;45.20;94873.69;5082421;28;20029;-87
2023/08/23 09:47:51;;;;;;;8.10;7.40;;;;;;;33.07;47.10;94878.78;5064274;28;20848;-87
2023/08/23 09:50:18;;;;;;;7.78;7.20;;;;;;;32.95;48.97;94875.09;5101243;28;20107;-87
2023/08/23 09:52:44;;;;;;;9.23;8.23;;;;;;;32.81;50.30;94873.38;5073010;28;20027;-87
2023/08/23 09:55:11;;;;;;;7.85;7.10;;;;;;;32.92;45.99;94878.41;5075913;28;20535;-83
2023/08/23 09:57:37;;;;;;;7.30;6.90;;;;;;;33.87;45.54;94863.97;5099970;28;20353;-87
2023/08/23 10:00:03;;;;;;;7.18;6.68;;;;;;;33.80;45.82;94856.38;5073620;28;20024;-84
2023/08/23 10:02:29;;;;;;;7.63;7.10;;;;;;;32.91;45.05;94858.06;5064848;28;20024;-83
2023/08/23 10:04:55;;;;;;;8.52;7.72;;;;;;;32.47;46.81;94854.44;5086427;28;20092;-85
2023/08/23 10:07:23;;;;;;;8.70;7.97;;;;;;;33.09;44.75;94851.63;5108669;28;20032;-87
2023/08/23 10:09:49;;;;;;;6.97;6.28;;;;;;;33.49;43.29;94855.75;5080697;28;20801;-88
2023/08/23 10:12:16;;;;;;;6.72;6.32;;;;;;;34.04;42.32;94855.84;5100700;28;20059;-88
2023/08/23 10:14:44;;;;;;;7.75;7.15;;;;;;;33.66;42.43;94863.03;5080817;28;20032;-85
2023/08/23 10:17:11;;;;;;;7.25;6.45;;;;;;;33.71;42.05;94854.81;5065050;28;20507;-87
2023/08/23 10:19:37;;;;;;;7.78;6.53;;;;;;;33.49;41.06;94858.41;5081485;28;20079;-85
2023/08/23 10:22:03;;;;;;;6.47;5.97;;;;;;;33.76;41.44;94860.81;5060034;28;20523;-84
2023/08/23 10:24:29;;;;;;;7.22;6.03;;;;;;;33.66;39.26;94850.38;5055027;28;20039;-85
2023/08/23 10:26:55;;;;;;;6.72;6.22;;;;;;;33.30;39.84;94855.25;5063031;28;20019;-82
2023/08/23 10:29:27;;;;;;;6.30;5.70;;;;;;;34.37;41.07;94856.09;5082083;28;20526;-86
2023/08/23 10:31:54;;;;;;;6.00;5.50;;;;;;;33.71;38.06;94849.44;5094080;28;20035;-86
2023/08/23 10:34:26;;;;;;;7.13;5.95;;;;;;;33.81;38.78;94841.03;5082848;28;20123;-85
2023/08/23 10:36:53;;;;;;;6.38;5.97;;;;;;;34.88;38.86;94845.06;5066395;28;20023;-87
2023/08/23 10:39:23;;;;;;;5.82;5.53;;;;;;;34.96;39.19;94839.97;5081731;28;20035;-86
2023/08/23 10:41:55;;;;;;;7.32;5.30;;;;;;;34.41;38.00;94840.88;5102405;28;20093;-82
2023/08/23 10:44:23;;;;;;;6.13;5.50;;;;;;;34.48;38.30;94838.47;5084022;28;20020;-88
2023/08/23 10:46:52;;;;;;;5.97;5.47;;;;;;;34.20;38.22;94837.31;5086638;28;20035;-85
2023/08/23 10:49:20;;;;;;;8.35;6.18;;;;;;;33.16;39.61;94838.53;5083846;28;20155;-83
2023/08/23 10:51:49;;;;;;;7.15;5.85;;;;;;;33.11;40.89;94833.28;5085452;28;20020;-86
2023/08/23 10:54:14;;;;;;;6.05;5.50;;;;;;;33.01;40.04;94826.31;5071187;28;20399;-82
2023/08/23 10:56:40;;;;;;;6.32;5.80;;;;;;;33.81;39.79;94822.22;5101985;28;20081;-84
2023/08/23 10:59:09;;;;;;;6.75;6.10;;;;;;;33.88;39.91;94827.88;5084375;28;20540;-82
2023/08/23 11:01:37;;;;;;;6.22;5.82;;;;;;;34.54;38.43;94834.47;5084320;28;20034;-85
2023/08/23 11:04:03;;;;;;;6.20;5.80;;;;;;;35.14;37.82;94836.06;5085419;28;20032;-81
2023/08/23 11:06:29;;;;;;;6.15;5.65;;;;;;;35.15;37.88;94833.06;5102068;28;20416;-85
2023/08/23 11:08:54;;;;;;;5.65;5.25;;;;;;;35.26;37.09;94834.22;5103883;28;20146;-86
2023/08/23 11:11:19;;;;;;;9.43;6.03;;;;;;;35.23;39.54;94842.97;5084234;28;20034;-85
2023/08/23 11:13:48;;;;;;;7.53;6.88;;;;;;;34.39;45.92;94843.88;5102069;28;20024;-84
2023/08/23 11:16:13;;;;;;;7.80;7.10;;;;;;;33.14;47.94;94828.09;5085276;28;20488;-85
2023/08/23 11:18:39;;;;;;;10.07;7.82;;;;;;;33.24;49.49;94826.97;5083708;28;20032;-86
2023/08/23 11:21:05;;;;;;;7.85;7.25;;;;;;;32.66;48.79;94833.53;5103922;28;20028;-93
2023/08/23 11:23:31;;;;;;;8.02;7.28;;;;;;;32.56;50.48;94824.97;5078329;28;20547;-84
2023/08/23 11:25:56;;;;;;;7.60;7.00;;;;;;;32.47;50.03;94824.91;5094674;28;20020;-86
2023/08/23 11:28:22;;;;;;;7.35;6.85;;;;;;;32.26;49.04;94827.38;5102247;28;20020;-81
2023/08/23 11:30:48;;;;;;;7.72;7.05;;;;;;;32.00;50.07;94831.81;5084533;28;20072;-86